createdAt,value
2023-05-15T00:02:14.391Z,64.46
2023-05-15T00:04:42.783Z,64.44
2023-05-15T00:07:11.339Z,64.48
2023-05-15T00:09:39.707Z,64.44
2023-05-15T00:12:09.267Z,64.27
2023-05-15T00:14:37.647Z,64.40
2023-05-15T00:17:06.489Z,64.14
2023-05-15T00:19:36.354Z,64.09
2023-05-15T00:22:04.693Z,63.96
2023-05-15T00:24:33.033Z,63.99
2023-05-15T00:27:01.888Z,64.11
2023-05-15T00:29:30.247Z,63.97
2023-05-15T00:31:58.731Z,64.08
2023-05-15T00:34:27.475Z,64.04
2023-05-15T00:36:57.250Z,63.90
2023-05-15T00:39:25.616Z,64.18
2023-05-15T00:41:56.153Z,64.01
2023-05-15T00:44:26.840Z,63.83
2023-05-15T00:46:57.225Z,63.94
2023-05-15T00:49:27.623Z,64.04
2023-05-15T00:51:58.406Z,63.56
2023-05-15T00:54:26.826Z,63.43
2023-05-15T00:56:58.180Z,63.43
2023-05-15T00:59:29.017Z,63.44
2023-05-15T01:01:57.616Z,63.37
2023-05-15T01:04:26.252Z,63.34
2023-05-15T01:06:56.845Z,63.16
2023-05-15T01:09:29.738Z,63.16
2023-05-15T01:12:00.403Z,63.20
2023-05-15T01:14:28.761Z,63.15
2023-05-15T01:16:57.108Z,63.09
2023-05-15T01:19:26.021Z,63.11
2023-05-15T01:22:36.151Z,63.24
2023-05-15T01:26:12.531Z,63.39
2023-05-15T01:28:53.098Z,63.24
2023-05-15T01:31:25.608Z,63.02
2023-05-15T01:34:00.299Z,63.14
2023-05-15T01:36:37.329Z,63.08
2023-05-15T01:39:08.207Z,63.14
2023-05-15T01:41:43.656Z,63.14
2023-05-15T01:44:20.025Z,62.98
2023-05-15T01:46:53.400Z,62.98
2023-05-15T01:49:27.831Z,62.60
2023-05-15T01:52:07.751Z,62.46
2023-05-15T01:54:37.380Z,62.35
2023-05-15T01:57:07.969Z,62.47
2023-05-15T01:59:39.814Z,62.30
2023-05-15T02:02:09.035Z,62.30
2023-05-15T02:04:39.187Z,62.33
2023-05-15T02:07:07.879Z,62.05
2023-05-15T02:09:37.789Z,61.95
2023-05-15T02:12:07.783Z,61.96
2023-05-15T02:14:38.576Z,62.11
2023-05-15T02:17:07.134Z,62.00
2023-05-15T02:19:35.822Z,62.03
2023-05-15T02:22:04.169Z,61.98
2023-05-15T02:24:32.517Z,61.81
2023-05-15T02:27:10.566Z,61.64
2023-05-15T02:29:56.062Z,61.61
2023-05-15T02:32:32.271Z,61.66
2023-05-15T02:35:15.112Z,61.50
2023-05-15T02:37:50.664Z,61.62
2023-05-15T02:40:20.049Z,61.83
2023-05-15T02:42:51.018Z,61.81
2023-05-15T02:45:21.684Z,61.80
2023-05-15T02:47:51.665Z,61.74
2023-05-15T02:50:20.638Z,61.68
2023-05-15T02:52:49.846Z,61.53
2023-05-15T02:55:18.410Z,61.64
2023-05-15T02:57:46.781Z,61.38
2023-05-15T03:00:17.695Z,61.31
2023-05-15T03:02:47.426Z,61.53
2023-05-15T03:05:16.121Z,61.36
2023-05-15T03:07:44.468Z,61.40
2023-05-15T03:10:12.837Z,61.39
2023-05-15T03:12:41.588Z,61.20
2023-05-15T03:15:10.842Z,60.82
2023-05-15T03:17:39.319Z,60.59
2023-05-15T03:20:11.606Z,60.40
2023-05-15T03:22:39.919Z,60.50
2023-05-15T03:25:11.277Z,60.57
2023-05-15T03:27:39.762Z,60.71
2023-05-15T03:30:10.086Z,60.92
2023-05-15T03:32:38.515Z,60.94
2023-05-15T03:35:09.865Z,61.16
2023-05-15T03:37:38.162Z,60.98
2023-05-15T03:40:08.777Z,61.30
2023-05-15T03:42:37.129Z,61.38
2023-05-15T03:45:06.712Z,61.55
2023-05-15T03:47:35.104Z,61.66
2023-05-15T03:50:03.599Z,61.48
2023-05-15T03:52:33.452Z,61.66
2023-05-15T03:55:02.554Z,61.49
2023-05-15T03:57:32.203Z,61.55
2023-05-15T04:00:01.313Z,61.76
2023-05-15T04:02:29.811Z,61.54
2023-05-15T04:04:58.231Z,61.52
2023-05-15T04:07:26.680Z,61.71
2023-05-15T04:09:56.434Z,61.62
2023-05-15T04:12:26.993Z,61.41
2023-05-15T04:14:55.311Z,61.49
2023-05-15T04:17:23.672Z,61.67
2023-05-15T04:19:52.054Z,61.66
2023-05-15T04:22:20.412Z,61.54
2023-05-15T04:24:48.823Z,61.45
2023-05-15T04:27:18.945Z,61.44
2023-05-15T04:29:47.317Z,61.11
2023-05-15T04:32:15.982Z,60.81
2023-05-15T04:34:44.340Z,60.63
2023-05-15T04:37:13.222Z,60.51
2023-05-15T04:39:41.618Z,60.36
2023-05-15T04:42:09.903Z,60.17
2023-05-15T04:44:39.671Z,60.14
2023-05-15T04:47:08.127Z,60.23
2023-05-15T04:49:36.559Z,60.24
2023-05-15T04:52:05.461Z,60.18
2023-05-15T04:54:33.900Z,60.22
2023-05-15T04:57:02.387Z,60.21
2023-05-15T04:59:30.948Z,60.14
2023-05-15T05:02:00.802Z,59.87
2023-05-15T05:04:29.248Z,59.68
2023-05-15T05:06:57.582Z,59.66
2023-05-15T05:09:25.931Z,59.88
2023-05-15T05:11:54.246Z,59.72
2023-05-15T05:14:22.828Z,59.26
2023-05-15T05:16:51.207Z,58.49
2023-05-15T05:19:21.064Z,58.39
2023-05-15T05:21:49.412Z,58.51
2023-05-15T05:24:17.736Z,58.32
2023-05-15T05:26:46.418Z,58.27
2023-05-15T05:29:14.807Z,58.06
2023-05-15T05:31:43.136Z,57.99
2023-05-15T05:34:11.520Z,57.69
2023-05-15T05:36:41.410Z,57.67
2023-05-15T05:39:09.753Z,57.76
2023-05-15T05:41:38.147Z,57.88
2023-05-15T05:44:06.701Z,57.11
2023-05-15T05:46:35.247Z,56.66
2023-05-15T05:49:03.784Z,56.42
2023-05-15T05:51:32.803Z,56.44
2023-05-15T05:54:02.501Z,55.54
2023-05-15T05:56:30.896Z,55.39
2023-05-15T05:59:01.799Z,54.64
2023-05-15T06:01:30.349Z,53.77
2023-05-15T06:03:58.758Z,54.21
2023-05-15T06:06:27.294Z,54.43
2023-05-15T06:08:56.582Z,54.46
2023-05-15T06:11:27.152Z,54.69
2023-05-15T06:13:55.474Z,54.82
2023-05-15T06:16:23.884Z,55.06
2023-05-15T06:18:52.292Z,55.06
2023-05-15T06:21:22.244Z,54.71
2023-05-15T06:23:50.605Z,53.80
2023-05-15T06:26:19.008Z,52.62
2023-05-15T06:28:48.806Z,52.73
2023-05-15T06:31:17.401Z,52.55
2023-05-15T06:33:45.809Z,52.98
2023-05-15T06:36:14.168Z,52.98
2023-05-15T06:38:42.575Z,52.89
2023-05-15T06:41:10.914Z,53.09
2023-05-15T06:43:39.266Z,53.69
2023-05-15T06:46:09.080Z,52.38
2023-05-15T06:48:37.989Z,52.81
2023-05-15T06:51:06.409Z,52.82
2023-05-15T06:53:34.756Z,52.63
2023-05-15T06:56:03.507Z,51.17
2023-05-15T06:58:31.896Z,51.25
2023-05-15T07:01:01.396Z,52.13
2023-05-15T07:03:31.228Z,51.57
2023-05-15T07:05:59.690Z,50.74
2023-05-15T07:08:28.087Z,50.55
2023-05-15T07:10:56.464Z,50.71
2023-05-15T07:13:25.216Z,50.57
2023-05-15T07:15:53.619Z,49.89
2023-05-15T07:18:22.037Z,49.53
2023-05-15T07:20:51.806Z,50.36
2023-05-15T07:23:20.200Z,49.71
2023-05-15T07:25:48.585Z,50.09
2023-05-15T07:28:16.942Z,49.93
2023-05-15T07:30:45.497Z,49.24
2023-05-15T07:33:13.953Z,47.43
2023-05-15T07:35:42.383Z,47.42
2023-05-15T07:38:12.685Z,46.88
2023-05-15T07:40:41.104Z,47.00
2023-05-15T07:43:10.010Z,46.29
2023-05-15T07:45:38.420Z,46.31
2023-05-15T07:48:16.913Z,45.95
2023-05-15T07:50:47.509Z,46.21
2023-05-15T07:53:17.403Z,46.60
2023-05-15T07:55:46.390Z,43.97
2023-05-15T07:58:14.777Z,45.01
2023-05-15T08:00:43.421Z,45.29
2023-05-15T08:03:12.964Z,45.50
2023-05-15T08:05:41.473Z,42.97
2023-05-15T08:08:09.907Z,42.80
2023-05-15T08:10:39.608Z,42.53
2023-05-15T08:13:08.010Z,41.65
2023-05-15T08:15:36.993Z,41.08
2023-05-15T08:18:10.976Z,42.41
2023-05-15T08:20:40.180Z,42.94
2023-05-15T08:23:08.815Z,43.31
2023-05-15T08:25:37.233Z,43.26
2023-05-15T08:28:07.177Z,43.45
2023-05-15T08:30:36.239Z,42.51
2023-05-15T08:33:04.781Z,42.03
2023-05-15T08:35:33.386Z,41.33
2023-05-15T08:38:03.282Z,41.63
2023-05-15T08:40:39.009Z,39.61
2023-05-15T08:43:16.684Z,39.01
2023-05-15T08:45:45.813Z,38.46
2023-05-15T08:48:20.403Z,38.18
2023-05-15T08:50:50.034Z,39.56
2023-05-15T08:53:19.050Z,38.93
2023-05-15T08:55:47.778Z,40.15
2023-05-15T08:58:18.294Z,41.05
2023-05-15T09:00:47.286Z,41.80
2023-05-15T09:03:19.781Z,41.68
2023-05-15T09:05:52.795Z,41.91
2023-05-15T09:08:24.112Z,42.45
2023-05-15T09:10:56.764Z,42.12
2023-05-15T09:13:26.653Z,42.33
2023-05-15T09:15:55.278Z,42.35
2023-05-15T09:18:24.114Z,41.98
2023-05-15T09:20:54.113Z,41.89
2023-05-15T09:23:27.095Z,42.14
2023-05-15T09:25:57.150Z,41.63
2023-05-15T09:28:33.465Z,41.70
2023-05-15T09:31:04.689Z,41.06
2023-05-15T09:33:35.561Z,41.09
2023-05-15T09:36:05.337Z,40.94
2023-05-15T09:38:35.496Z,40.32
2023-05-15T09:41:06.277Z,40.14
2023-05-15T09:43:42.114Z,40.12
2023-05-15T09:46:13.051Z,39.85
2023-05-15T09:48:41.712Z,37.98
2023-05-15T09:51:17.982Z,38.06
2023-05-15T09:53:50.948Z,38.57
2023-05-15T09:56:19.923Z,38.82
2023-05-15T09:58:57.460Z,38.79
2023-05-15T10:01:27.597Z,36.63
2023-05-15T10:04:00.734Z,36.38
2023-05-15T10:06:35.558Z,37.49
2023-05-15T10:09:05.019Z,37.73
2023-05-15T10:11:36.548Z,35.02
2023-05-15T10:14:08.194Z,35.35
2023-05-15T10:16:38.587Z,35.74
2023-05-15T10:19:10.070Z,36.75
2023-05-15T10:21:40.300Z,36.62
2023-05-15T10:24:10.013Z,37.14
2023-05-15T10:26:40.336Z,37.74
2023-05-15T10:29:13.262Z,38.11
2023-05-15T10:31:42.646Z,38.41
2023-05-15T10:34:12.371Z,38.01
2023-05-15T10:36:40.958Z,37.18
2023-05-15T10:39:09.793Z,36.86
2023-05-15T10:41:40.552Z,35.93
2023-05-15T10:44:11.129Z,35.60
2023-05-15T10:46:39.526Z,34.93
2023-05-15T10:49:07.995Z,36.09
2023-05-15T10:51:40.452Z,36.21
2023-05-15T10:54:10.889Z,36.73
2023-05-15T10:56:40.658Z,36.99
2023-05-15T10:59:12.604Z,37.32
2023-05-15T11:01:42.400Z,37.28
2023-05-15T11:04:13.702Z,37.21
2023-05-15T11:06:43.913Z,36.95
2023-05-15T11:09:35.823Z,36.97
2023-05-15T11:12:06.174Z,34.67
2023-05-15T11:14:38.847Z,33.78
2023-05-15T11:17:09.586Z,33.38
2023-05-15T11:19:57.943Z,32.90
2023-05-15T11:22:36.101Z,31.56
2023-05-15T11:25:08.898Z,31.30
2023-05-15T11:27:41.628Z,30.79
2023-05-15T11:30:18.266Z,29.09
2023-05-15T11:32:58.439Z,29.16
2023-05-15T11:35:30.649Z,29.53
2023-05-15T11:38:00.930Z,29.44
2023-05-15T11:40:31.324Z,28.60
2023-05-15T11:43:08.987Z,28.60
2023-05-15T11:45:41.439Z,28.59
2023-05-15T11:48:16.056Z,26.09
2023-05-15T11:50:46.836Z,24.91
2023-05-15T11:53:16.603Z,26.15
2023-05-15T11:55:46.288Z,23.93
2023-05-15T11:58:16.981Z,24.28
2023-05-15T12:00:49.469Z,25.60
2023-05-15T12:03:20.472Z,24.67
2023-05-15T12:05:58.164Z,26.08
2023-05-15T12:08:33.266Z,25.97
2023-05-15T12:11:02.999Z,26.77
2023-05-15T12:13:32.879Z,25.45
2023-05-15T12:16:04.603Z,25.41
2023-05-15T12:18:33.412Z,26.68
2023-05-15T12:21:02.201Z,27.08
2023-05-15T12:23:30.735Z,27.48
2023-05-15T12:26:02.784Z,26.62
2023-05-15T12:28:34.293Z,26.19
2023-05-15T12:31:05.254Z,25.23
2023-05-15T12:33:34.021Z,24.47
2023-05-15T12:36:02.460Z,24.12
2023-05-15T12:38:31.116Z,23.14
2023-05-15T12:40:59.720Z,22.83
2023-05-15T12:43:28.566Z,20.04
2023-05-15T12:45:57.920Z,20.52
2023-05-15T12:48:32.874Z,20.48
2023-05-15T12:51:07.979Z,21.08
2023-05-15T12:53:39.720Z,20.91
2023-05-15T12:56:09.317Z,21.50
2023-05-15T12:58:38.530Z,21.36
2023-05-15T13:01:07.136Z,22.48
2023-05-15T13:03:37.702Z,21.78
2023-05-15T13:06:08.191Z,22.33
2023-05-15T13:08:42.685Z,22.39
2023-05-15T13:11:14.702Z,22.95
2023-05-15T13:13:48.288Z,22.87
2023-05-15T13:16:22.280Z,21.82
2023-05-15T13:18:52.448Z,21.59
2023-05-15T13:21:21.158Z,22.47
2023-05-15T13:23:49.726Z,22.26
2023-05-15T13:26:18.131Z,22.17
2023-05-15T13:28:46.458Z,21.96
2023-05-15T13:31:15.073Z,21.55
2023-05-15T13:33:43.668Z,21.57
2023-05-15T13:36:13.832Z,20.28
2023-05-15T13:38:42.301Z,19.54
2023-05-15T13:41:11.259Z,18.59
2023-05-15T13:43:39.628Z,17.90
2023-05-15T13:46:08.167Z,18.98
2023-05-15T13:48:36.645Z,18.93
2023-05-15T13:51:05.311Z,19.39
2023-05-15T13:53:35.183Z,19.90
2023-05-15T13:56:03.693Z,19.79
2023-05-15T13:58:32.171Z,19.51
2023-05-15T14:01:00.591Z,19.48
2023-05-15T14:03:29.029Z,18.93
2023-05-15T14:05:57.452Z,18.68
2023-05-15T14:08:25.837Z,18.97
2023-05-15T14:10:55.668Z,19.24
2023-05-15T14:13:24.505Z,18.76
2023-05-15T14:15:53.173Z,18.29
2023-05-15T14:18:21.532Z,18.32
2023-05-15T14:20:49.994Z,17.53
2023-05-15T14:23:18.349Z,18.34
2023-05-15T14:25:46.752Z,18.58
2023-05-15T14:28:16.532Z,18.12
2023-05-15T14:30:44.946Z,17.02
2023-05-15T14:33:13.368Z,16.82
2023-05-15T14:35:41.858Z,16.34
2023-05-15T14:38:10.183Z,16.66
2023-05-15T14:40:38.530Z,16.17
2023-05-15T14:43:07.431Z,16.30
2023-05-15T14:45:37.355Z,16.68
2023-05-15T14:48:06.254Z,17.10
2023-05-15T14:50:34.807Z,17.29
2023-05-15T14:53:03.431Z,17.43
2023-05-15T14:55:32.434Z,17.51
2023-05-15T14:58:01.222Z,18.10
2023-05-15T15:00:29.680Z,19.64
2023-05-15T15:03:01.819Z,20.34
2023-05-15T15:05:30.391Z,20.60
2023-05-15T15:08:05.029Z,20.40
2023-05-15T15:10:34.374Z,20.77
2023-05-15T15:13:02.992Z,20.09
2023-05-15T15:15:32.976Z,19.83
2023-05-15T15:18:02.971Z,19.71
2023-05-15T15:20:31.643Z,19.52
2023-05-15T15:23:00.083Z,19.31
2023-05-15T15:25:30.742Z,18.21
2023-05-15T15:28:00.496Z,18.33
2023-05-15T15:30:29.072Z,18.51
2023-05-15T15:32:57.961Z,18.66
2023-05-15T15:35:27.958Z,19.29
2023-05-15T15:37:56.544Z,20.44
2023-05-15T15:40:25.628Z,20.76
2023-05-15T15:42:54.391Z,21.97
2023-05-15T15:45:22.937Z,22.55
2023-05-15T15:47:51.434Z,22.97
2023-05-15T15:50:19.910Z,23.51
2023-05-15T15:52:49.695Z,23.97
2023-05-15T15:55:18.126Z,24.74
2023-05-15T15:57:46.605Z,25.10
2023-05-15T16:00:16.438Z,24.97
2023-05-15T16:02:45.090Z,25.67
2023-05-15T16:05:13.769Z,26.04
2023-05-15T16:07:42.110Z,26.63
2023-05-15T16:10:13.527Z,26.73
2023-05-15T16:12:42.825Z,27.20
2023-05-15T16:15:22.515Z,27.89
2023-05-15T16:17:53.745Z,28.05
2023-05-15T16:20:23.542Z,28.53
2023-05-15T16:22:52.027Z,28.69
2023-05-15T16:25:21.935Z,29.15
2023-05-15T16:27:50.315Z,29.27
2023-05-15T16:30:18.744Z,29.60
2023-05-15T16:32:48.597Z,30.04
2023-05-15T16:35:17.315Z,30.23
2023-05-15T16:37:45.695Z,30.62
2023-05-15T16:40:14.649Z,30.64
2023-05-15T16:42:44.453Z,30.94
2023-05-15T16:45:13.099Z,30.97
2023-05-15T16:47:41.610Z,30.99
2023-05-15T16:50:10.917Z,31.44
2023-05-15T16:52:45.363Z,31.40
2023-05-15T16:55:16.361Z,31.41
2023-05-15T16:57:47.144Z,31.16
2023-05-15T17:00:17.144Z,31.09
2023-05-15T17:02:45.732Z,31.03
2023-05-15T17:05:15.152Z,31.16
2023-05-15T17:07:45.159Z,31.27
2023-05-15T17:10:14.426Z,31.31
2023-05-15T17:12:43.010Z,31.58
2023-05-15T17:15:14.233Z,31.40
2023-05-15T17:17:42.699Z,31.64
2023-05-15T17:20:12.926Z,31.54
2023-05-15T17:22:41.518Z,31.78
2023-05-15T17:25:11.297Z,31.79
2023-05-15T17:27:41.588Z,31.88
2023-05-15T17:30:13.025Z,32.08
2023-05-15T17:32:41.644Z,31.90
2023-05-15T17:35:11.504Z,32.16
2023-05-15T17:37:40.095Z,32.39
2023-05-15T17:40:10.030Z,32.46
2023-05-15T17:42:38.495Z,32.25
2023-05-15T17:45:08.767Z,32.49
2023-05-15T17:47:38.667Z,32.82
2023-05-15T17:50:09.517Z,33.19
2023-05-15T17:52:38.178Z,33.21
2023-05-15T17:55:08.384Z,33.59
2023-05-15T17:57:36.840Z,34.33
2023-05-15T18:00:07.166Z,34.46
2023-05-15T18:02:36.998Z,34.32
2023-05-15T18:05:06.233Z,34.51
2023-05-15T18:07:34.651Z,34.81
2023-05-15T18:10:03.281Z,35.25
2023-05-15T18:12:31.671Z,34.97
2023-05-15T18:15:00.124Z,35.37
2023-05-15T18:17:28.630Z,35.54
2023-05-15T18:19:58.448Z,35.32
2023-05-15T18:22:26.894Z,35.74
2023-05-15T18:24:55.357Z,35.45
2023-05-15T18:27:23.816Z,35.94
2023-05-15T18:29:52.977Z,35.60
2023-05-15T18:32:21.595Z,35.89
2023-05-15T18:34:50.261Z,35.99
2023-05-15T18:37:20.293Z,36.39
2023-05-15T18:39:48.988Z,36.08
2023-05-15T18:42:17.405Z,36.54
2023-05-15T18:44:46.309Z,36.22
2023-05-15T18:47:14.865Z,36.20
2023-05-15T18:49:43.272Z,36.39
2023-05-15T18:52:12.084Z,36.74
2023-05-15T18:54:42.475Z,36.81
2023-05-15T18:57:10.866Z,36.90
2023-05-15T18:59:39.270Z,37.26
2023-05-15T19:02:09.397Z,37.09
2023-05-15T19:04:37.914Z,37.73
2023-05-15T19:07:06.885Z,37.23
2023-05-15T19:09:36.015Z,37.32
2023-05-15T19:12:06.493Z,37.68
2023-05-15T19:14:34.916Z,37.62
2023-05-15T19:17:03.389Z,37.64
2023-05-15T19:19:31.948Z,37.92
2023-05-15T19:22:00.460Z,37.79
2023-05-15T19:24:29.968Z,37.87
2023-05-15T19:26:59.299Z,37.87
2023-05-15T19:29:29.162Z,38.26
2023-05-15T19:31:57.659Z,38.19
2023-05-15T19:34:26.258Z,38.72
2023-05-15T19:36:54.973Z,38.83
2023-05-15T19:39:23.366Z,38.52
2023-05-15T19:41:52.374Z,38.89
2023-05-15T19:44:20.915Z,38.76
2023-05-15T19:46:51.657Z,38.89
2023-05-15T19:49:21.635Z,38.73
2023-05-15T19:51:50.051Z,39.01
2023-05-15T19:54:18.538Z,39.18
2023-05-15T19:56:46.922Z,39.27
2023-05-15T19:59:15.702Z,39.40
2023-05-15T20:01:44.291Z,39.29
2023-05-15T20:04:14.333Z,39.43
2023-05-15T20:06:43.278Z,39.43
2023-05-15T20:09:11.772Z,39.38
2023-05-15T20:11:40.147Z,39.71
2023-05-15T20:14:08.534Z,39.79
2023-05-15T20:16:37.188Z,39.75
2023-05-15T20:19:06.112Z,39.67
2023-05-15T20:21:36.005Z,39.97
2023-05-15T20:24:04.664Z,39.91
2023-05-15T20:26:33.046Z,39.80
2023-05-15T20:29:01.487Z,40.27
2023-05-15T20:31:30.007Z,40.11
2023-05-15T20:33:59.231Z,40.23
2023-05-15T20:36:28.314Z,40.39
2023-05-15T20:38:58.993Z,40.56
2023-05-15T20:41:27.341Z,40.54
2023-05-15T20:43:55.715Z,40.72
2023-05-15T20:46:28.178Z,40.58
2023-05-15T20:48:57.997Z,40.79
2023-05-15T20:51:26.565Z,40.92
2023-05-15T20:53:54.977Z,41.08
2023-05-15T20:56:26.407Z,40.92
2023-05-15T20:58:57.449Z,41.11
2023-05-15T21:01:27.510Z,41.13
2023-05-15T21:03:56.064Z,41.07
2023-05-15T21:06:24.804Z,41.19
2023-05-15T21:08:53.088Z,41.28
2023-05-15T21:11:21.784Z,41.51
2023-05-15T21:13:51.623Z,41.46
2023-05-15T21:16:20.053Z,41.58
2023-05-15T21:18:49.123Z,41.79
2023-05-15T21:21:17.685Z,41.98
2023-05-15T21:23:46.130Z,42.10
2023-05-15T21:26:14.534Z,42.08
2023-05-15T21:28:43.220Z,42.20
2023-05-15T21:31:13.010Z,42.32
2023-05-15T21:33:41.474Z,42.42
2023-05-15T21:36:10.910Z,42.40
2023-05-15T21:38:39.301Z,42.43
2023-05-15T21:41:07.638Z,42.56
2023-05-15T21:43:36.058Z,42.64
2023-05-15T21:46:04.592Z,42.59
2023-05-15T21:48:34.451Z,42.79
2023-05-15T21:51:02.877Z,42.75
2023-05-15T21:53:31.368Z,42.85
2023-05-15T21:56:01.377Z,42.64
2023-05-15T21:58:30.427Z,42.80
2023-05-15T22:00:59.267Z,42.74
2023-05-15T22:03:28.195Z,42.86
2023-05-15T22:05:58.841Z,43.12
2023-05-15T22:08:27.280Z,43.10
2023-05-15T22:10:55.775Z,43.11
2023-05-15T22:13:24.138Z,43.07
2023-05-15T22:15:52.609Z,43.44
2023-05-15T22:18:21.294Z,43.45
2023-05-15T22:20:50.501Z,43.40
2023-05-15T22:23:20.343Z,43.59
2023-05-15T22:25:49.324Z,43.59
2023-05-15T22:28:18.021Z,43.42
2023-05-15T22:30:46.503Z,43.40
2023-05-15T22:33:15.125Z,43.39
2023-05-15T22:35:44.268Z,43.16
2023-05-15T22:38:12.677Z,43.14
2023-05-15T22:40:42.516Z,42.98
2023-05-15T22:43:11.109Z,42.86
2023-05-15T22:45:39.546Z,42.94
2023-05-15T22:48:08.532Z,42.99
2023-05-15T22:50:37.488Z,43.12
2023-05-15T22:53:05.887Z,42.93
2023-05-15T22:55:34.255Z,42.98
2023-05-15T22:58:04.155Z,42.73
2023-05-15T23:00:32.570Z,42.73
2023-05-15T23:03:01.164Z,42.79
2023-05-15T23:05:29.533Z,42.75
2023-05-15T23:07:57.918Z,42.56
2023-05-15T23:10:26.432Z,42.54
2023-05-15T23:12:55.125Z,42.53
2023-05-15T23:15:24.972Z,42.61
2023-05-15T23:17:53.445Z,42.53
2023-05-15T23:20:21.939Z,42.47
2023-05-15T23:22:50.670Z,42.30
2023-05-15T23:25:19.458Z,42.54
2023-05-15T23:27:47.789Z,42.47
2023-05-15T23:30:17.187Z,42.54
2023-05-15T23:32:46.987Z,42.51
2023-05-15T23:35:15.522Z,42.55
2023-05-15T23:37:43.892Z,42.37
2023-05-15T23:40:14.575Z,42.65
2023-05-15T23:42:43.011Z,42.40
2023-05-15T23:45:13.790Z,42.44
2023-05-15T23:47:42.346Z,42.61
2023-05-15T23:50:12.614Z,42.57
2023-05-15T23:52:41.006Z,42.43
2023-05-15T23:55:10.519Z,42.51
2023-05-15T23:57:38.834Z,42.40
